createdAt,value
2023-04-17T00:00:35.458Z,5.12
2023-04-17T00:03:04.349Z,5.15
2023-04-17T00:05:33.900Z,5.13
2023-04-17T00:08:04.685Z,5.09
2023-04-17T00:10:33.261Z,5.02
2023-04-17T00:13:03.475Z,4.94
2023-04-17T00:15:31.771Z,4.87
2023-04-17T00:18:00.572Z,4.82
2023-04-17T00:20:28.880Z,4.77
2023-04-17T00:22:57.297Z,4.74
2023-04-17T00:25:25.983Z,4.73
2023-04-17T00:27:54.365Z,4.69
2023-04-17T00:30:22.633Z,4.69
2023-04-17T00:32:53.790Z,4.68
2023-04-17T00:35:22.363Z,4.68
2023-04-17T00:37:50.749Z,4.67
2023-04-17T00:40:19.225Z,4.66
2023-04-17T00:42:53.213Z,4.65
2023-04-17T00:45:22.130Z,4.62
2023-04-17T00:47:50.879Z,4.57
2023-04-17T00:50:19.318Z,4.55
2023-04-17T00:52:47.667Z,4.51
2023-04-17T00:55:16.150Z,4.46
2023-04-17T00:57:45.041Z,4.45
2023-04-17T01:00:14.137Z,4.49
2023-04-17T01:02:42.739Z,4.54
2023-04-17T01:05:11.195Z,4.59
2023-04-17T01:07:41.435Z,4.59
2023-04-17T01:10:10.203Z,4.63
2023-04-17T01:12:38.910Z,4.65
2023-04-17T01:15:07.799Z,4.69
2023-04-17T01:17:36.629Z,4.68
2023-04-17T01:20:11.157Z,4.66
2023-04-17T01:22:39.570Z,4.65
2023-04-17T01:25:08.456Z,4.68
2023-04-17T01:27:38.791Z,4.71
2023-04-17T01:30:08.939Z,4.68
2023-04-17T01:32:43.987Z,4.64
2023-04-17T01:35:12.418Z,4.60
2023-04-17T01:37:40.797Z,4.59
2023-04-17T01:40:10.394Z,4.63
2023-04-17T01:42:39.093Z,4.63
2023-04-17T01:45:08.354Z,4.63
2023-04-17T01:47:36.897Z,4.64
2023-04-17T01:50:06.069Z,4.67
2023-04-17T01:52:36.321Z,4.69
2023-04-17T01:55:05.201Z,4.67
2023-04-17T01:57:33.559Z,4.60
2023-04-17T02:00:02.443Z,4.54
2023-04-17T02:02:41.378Z,4.50
2023-04-17T02:05:10.746Z,4.48
2023-04-17T02:07:39.874Z,4.50
2023-04-17T02:43:24.844Z,4.17
2023-04-17T02:47:07.578Z,4.14
2023-04-17T02:49:37.176Z,4.12
2023-04-17T02:52:05.551Z,4.07
2023-04-17T02:54:35.468Z,4.00
2023-04-17T02:57:04.361Z,3.96
2023-04-17T02:59:33.353Z,3.93
2023-04-17T03:02:04.042Z,3.89
2023-04-17T03:04:34.715Z,3.88
2023-04-17T03:07:02.892Z,3.87
2023-04-17T03:09:31.582Z,3.90
2023-04-17T03:11:59.952Z,3.88
2023-04-17T03:14:28.745Z,3.84
2023-04-17T03:16:57.549Z,3.80
2023-04-17T03:19:26.216Z,3.80
2023-04-17T03:21:54.693Z,3.77
2023-04-17T03:24:23.175Z,3.74
2023-04-17T03:26:51.659Z,3.72
2023-04-17T03:29:21.779Z,3.73
2023-04-17T03:31:49.996Z,3.73
2023-04-17T03:34:21.867Z,3.75
2023-04-17T03:36:50.705Z,3.77
2023-04-17T03:39:20.179Z,3.80
2023-04-17T03:41:48.383Z,3.84
2023-04-17T03:44:18.804Z,3.87
2023-04-17T03:46:47.705Z,3.95
2023-04-17T03:49:16.484Z,4.00
2023-04-17T03:51:45.473Z,4.08
2023-04-17T03:54:18.357Z,4.11
2023-04-17T03:56:47.859Z,4.17
2023-04-17T03:59:16.752Z,4.26
2023-04-17T04:01:47.060Z,4.36
2023-04-17T04:04:21.343Z,4.48
2023-04-17T04:06:51.196Z,4.59
2023-04-17T04:09:22.034Z,4.74
2023-04-17T04:11:50.414Z,4.91
2023-04-17T04:14:20.024Z,5.06
2023-04-17T04:16:49.627Z,5.19
2023-04-17T04:19:18.409Z,5.35
2023-04-17T04:21:46.700Z,5.46
2023-04-17T04:24:15.983Z,5.56
2023-04-17T04:26:47.364Z,5.69
2023-04-17T04:29:16.119Z,5.75
2023-04-17T04:31:53.598Z,5.85
2023-04-17T04:34:30.156Z,5.97
2023-04-17T04:36:58.873Z,6.04
2023-04-17T04:39:54.357Z,6.19
2023-04-17T04:42:23.582Z,6.30
2023-04-17T04:45:00.985Z,6.32
2023-04-17T04:47:30.599Z,6.32
2023-04-17T04:49:59.159Z,6.31
2023-04-17T05:44:09.765Z,7.32
2023-04-17T05:46:38.957Z,7.35
2023-04-17T05:49:07.334Z,7.36
2023-04-17T05:51:36.127Z,7.32
2023-04-17T05:54:04.397Z,7.30
2023-04-17T05:56:33.084Z,7.30
2023-04-17T05:59:02.025Z,7.32
2023-04-17T06:01:31.066Z,7.39
2023-04-17T06:04:00.359Z,7.52
2023-04-17T06:06:30.386Z,7.48
2023-04-17T06:08:59.384Z,7.51
2023-04-17T06:11:27.860Z,7.58
2023-04-17T06:13:56.342Z,7.62
2023-04-17T06:16:24.851Z,7.72
2023-04-17T06:18:53.306Z,7.81
2023-04-17T06:21:22.093Z,7.88
2023-04-17T06:23:50.681Z,7.93
2023-04-17T06:26:19.052Z,8.02
2023-04-17T06:28:48.351Z,8.16
2023-04-17T06:31:16.943Z,8.28
2023-04-17T06:33:47.866Z,8.32
2023-04-17T06:36:16.360Z,8.40
2023-04-17T06:38:48.940Z,8.44
2023-04-17T06:41:17.926Z,8.55
2023-04-17T06:43:46.401Z,8.77
2023-04-17T06:46:15.807Z,8.97
2023-04-17T06:48:44.220Z,8.99
2023-04-17T06:51:12.660Z,8.94
2023-04-17T06:53:40.939Z,8.91
2023-04-17T06:56:09.321Z,8.92
2023-04-17T06:58:44.300Z,8.97
2023-04-17T07:01:13.563Z,8.92
2023-04-17T07:03:42.447Z,8.92
2023-04-17T07:06:10.971Z,9.06
2023-04-17T07:08:39.524Z,9.30
2023-04-17T07:11:07.888Z,9.38
2023-04-17T07:13:36.589Z,9.43
2023-04-17T07:16:06.928Z,9.47
2023-04-17T07:18:35.581Z,9.60
2023-04-17T07:21:04.263Z,9.74
2023-04-17T07:23:32.631Z,9.91
2023-04-17T07:26:00.910Z,10.02
2023-04-17T07:28:29.492Z,10.12
2023-04-17T07:30:58.912Z,10.31
2023-04-17T07:33:27.169Z,10.44
2023-04-17T07:35:56.073Z,10.57
2023-04-17T07:38:25.153Z,10.61
2023-04-17T07:40:53.430Z,10.68
2023-04-17T07:43:23.962Z,10.71
2023-04-17T07:45:52.340Z,10.91
2023-04-17T07:48:22.646Z,11.09
2023-04-17T07:50:51.345Z,11.10
2023-04-17T07:53:20.343Z,11.13
2023-04-17T07:55:49.350Z,11.17
2023-04-17T07:58:18.118Z,11.14
2023-04-17T08:00:46.799Z,11.30
2023-04-17T08:03:15.222Z,11.47
2023-04-17T08:05:43.986Z,11.60
2023-04-17T08:08:12.665Z,11.62
2023-04-17T08:10:41.954Z,11.65
2023-04-17T08:13:10.228Z,11.80
2023-04-17T08:15:40.899Z,11.96
2023-04-17T08:18:09.880Z,12.00
2023-04-17T08:20:38.442Z,11.99
2023-04-17T08:23:08.460Z,11.97
2023-04-17T08:25:37.756Z,11.92
2023-04-17T08:28:06.235Z,11.92
2023-04-17T08:30:34.461Z,11.97
2023-04-17T08:33:03.467Z,12.07
2023-04-17T08:35:33.416Z,12.20
2023-04-17T08:38:01.608Z,12.37
2023-04-17T08:40:30.178Z,12.50
2023-04-17T08:42:58.563Z,12.49
2023-04-17T08:45:26.928Z,12.55
2023-04-17T08:47:56.045Z,12.82
2023-04-17T08:50:24.482Z,13.03
2023-04-17T08:52:52.954Z,13.04
2023-04-17T08:55:23.865Z,13.14
2023-04-17T08:58:03.793Z,13.18
2023-04-17T09:00:51.192Z,13.11
2023-04-17T09:03:19.595Z,13.21
2023-04-17T09:05:48.869Z,13.38
2023-04-17T09:08:21.148Z,13.45
2023-04-17T09:10:54.011Z,13.41
2023-04-17T09:13:25.141Z,13.29
2023-04-17T09:16:07.753Z,13.21
2023-04-17T09:18:37.077Z,13.13
2023-04-17T09:21:06.585Z,13.08
2023-04-17T09:23:55.609Z,13.01
2023-04-17T09:26:27.828Z,13.05
2023-04-17T09:29:04.326Z,13.23
2023-04-17T09:31:34.948Z,13.32
2023-04-17T09:34:04.940Z,13.47
2023-04-17T09:36:40.114Z,13.77
2023-04-17T09:39:40.118Z,13.99
2023-04-17T09:42:10.621Z,14.23
2023-04-17T09:44:42.476Z,14.39
2023-04-17T09:47:11.468Z,14.34
2023-04-17T09:49:42.392Z,14.46
2023-04-17T09:52:12.228Z,14.38
2023-04-17T09:54:41.312Z,14.25
2023-04-17T09:57:10.718Z,14.25
2023-04-17T09:59:40.991Z,14.30
2023-04-17T10:02:10.136Z,14.38
2023-04-17T10:04:42.581Z,14.57
2023-04-17T10:07:11.300Z,14.72
2023-04-17T10:09:41.928Z,14.77
2023-04-17T10:12:15.004Z,14.89
2023-04-17T10:14:49.119Z,15.09
2023-04-17T10:17:24.959Z,15.30
2023-04-17T10:19:53.653Z,15.26
2023-04-17T10:22:23.170Z,15.05
2023-04-17T10:25:11.098Z,15.02
2023-04-17T10:27:40.408Z,15.26
2023-04-17T10:30:13.318Z,15.38
2023-04-17T10:33:09.244Z,15.56
2023-04-17T10:35:38.404Z,15.70
2023-04-17T10:38:07.727Z,15.72
2023-04-17T10:40:36.588Z,15.81
2023-04-17T10:43:14.401Z,15.67
2023-04-17T10:46:11.395Z,15.66
2023-04-17T10:48:47.048Z,15.51
2023-04-17T10:51:21.737Z,15.39
2023-04-17T10:53:51.594Z,15.20
2023-04-17T10:56:25.757Z,15.23
2023-04-17T10:59:07.014Z,15.35
2023-04-17T11:01:49.252Z,15.50
2023-04-17T11:04:31.401Z,15.66
2023-04-17T11:07:01.041Z,15.84
2023-04-17T11:09:30.142Z,15.94
2023-04-17T11:11:59.648Z,15.89
2023-04-17T11:14:28.240Z,15.81
2023-04-17T11:16:56.789Z,15.90
2023-04-17T11:19:25.975Z,16.00
2023-04-17T11:21:57.450Z,16.00
2023-04-17T11:24:27.403Z,16.00
2023-04-17T11:26:57.104Z,16.06
2023-04-17T11:29:26.375Z,16.20
2023-04-17T11:31:56.333Z,16.34
2023-04-17T11:34:25.794Z,16.48
2023-04-17T11:36:58.590Z,16.61
2023-04-17T11:39:30.582Z,16.60
2023-04-17T11:41:59.644Z,16.65
2023-04-17T11:44:28.684Z,16.79
2023-04-17T11:46:59.168Z,16.87
2023-04-17T11:49:37.883Z,16.94
2023-04-17T11:52:06.174Z,16.79
2023-04-17T11:54:39.445Z,16.62
2023-04-17T11:57:12.568Z,16.62
2023-04-17T11:59:46.234Z,16.54
2023-04-17T12:02:15.426Z,16.44
2023-04-17T12:04:44.114Z,16.51
2023-04-17T12:07:22.033Z,16.66
2023-04-17T12:09:58.057Z,16.92
2023-04-17T12:12:26.461Z,16.99
2023-04-17T12:14:55.558Z,16.91
2023-04-17T12:17:24.138Z,16.92
2023-04-17T12:19:53.531Z,17.09
2023-04-17T12:22:22.020Z,17.21
2023-04-17T12:24:51.304Z,17.26
2023-04-17T12:27:20.208Z,17.23
2023-04-17T12:29:48.504Z,17.32
2023-04-17T12:32:17.057Z,17.29
2023-04-17T12:34:46.197Z,17.25
2023-04-17T12:37:15.044Z,17.16
2023-04-17T12:39:43.632Z,17.06
2023-04-17T12:42:12.656Z,17.04
2023-04-17T12:44:42.636Z,17.08
2023-04-17T12:47:11.013Z,17.26
2023-04-17T12:49:39.904Z,17.38
2023-04-17T12:52:08.290Z,17.41
2023-04-17T12:54:40.351Z,17.39
2023-04-17T12:57:10.187Z,17.46
2023-04-17T12:59:40.478Z,17.49
2023-04-17T13:02:08.873Z,17.40
2023-04-17T13:04:38.733Z,17.38
2023-04-17T13:07:08.275Z,17.32
2023-04-17T13:09:37.063Z,17.24
2023-04-17T13:12:06.521Z,17.08
2023-04-17T13:14:34.866Z,17.09
2023-04-17T13:17:04.053Z,17.19
2023-04-17T13:19:33.345Z,17.19
2023-04-17T13:22:01.708Z,17.21
2023-04-17T13:24:30.301Z,17.15
2023-04-17T13:26:58.893Z,17.21
2023-04-17T13:29:27.902Z,17.28
2023-04-17T13:31:56.258Z,17.28
2023-04-17T13:34:25.864Z,17.26
2023-04-17T13:36:57.636Z,17.16
2023-04-17T13:39:27.015Z,17.08
2023-04-17T13:41:57.548Z,16.92
2023-04-17T13:44:26.760Z,16.89
2023-04-17T13:46:55.634Z,16.81
2023-04-17T13:49:23.924Z,16.87
2023-04-17T13:51:53.522Z,16.89
2023-04-17T13:54:21.801Z,17.03
2023-04-17T13:56:50.065Z,17.25
2023-04-17T13:59:18.549Z,17.39
2023-04-17T14:01:47.182Z,17.50
2023-04-17T14:04:15.689Z,17.44
2023-04-17T14:06:47.181Z,17.31
2023-04-17T14:09:16.877Z,17.17
2023-04-17T14:11:45.158Z,17.00
2023-04-17T14:14:13.425Z,16.94
2023-04-17T14:16:41.824Z,16.80
2023-04-17T14:19:14.054Z,16.69
2023-04-17T14:21:43.271Z,16.59
2023-04-17T14:24:11.654Z,16.56
2023-04-17T14:26:40.234Z,16.54
2023-04-17T14:29:10.860Z,16.55
2023-04-17T14:31:39.369Z,16.60
2023-04-17T14:34:08.028Z,16.63
2023-04-17T14:36:36.400Z,16.66
2023-04-17T14:39:05.193Z,16.64
2023-04-17T14:41:35.009Z,16.60
2023-04-17T14:44:03.279Z,16.53
2023-04-17T14:46:32.137Z,16.46
2023-04-17T14:49:00.650Z,16.40
2023-04-17T14:51:30.675Z,16.34
2023-04-17T14:53:59.145Z,16.30
2023-04-17T14:56:27.937Z,16.27
2023-04-17T14:58:56.320Z,16.25
2023-04-17T15:01:24.744Z,16.20
2023-04-17T15:05:12.527Z,16.20
2023-04-17T15:07:41.523Z,16.14
2023-04-17T15:10:11.125Z,16.06
2023-04-17T15:12:39.515Z,15.99
2023-04-17T15:15:08.913Z,15.92
2023-04-17T15:17:37.971Z,15.87
2023-04-17T15:20:07.630Z,15.81
2023-04-17T15:22:36.093Z,15.76
2023-04-17T15:25:06.259Z,15.72
2023-04-17T15:27:34.591Z,15.69
2023-04-17T15:30:06.758Z,15.68
2023-04-17T15:32:35.683Z,15.69
2023-04-17T15:35:05.164Z,15.74
2023-04-17T15:37:33.425Z,15.81
2023-04-17T15:40:02.426Z,15.81
2023-04-17T15:42:31.723Z,15.75
2023-04-17T15:45:00.878Z,15.66
2023-04-17T15:47:29.222Z,15.56
2023-04-17T15:49:57.940Z,15.44
2023-04-17T15:52:26.559Z,15.32
2023-04-17T15:54:55.147Z,15.20
2023-04-17T15:57:23.433Z,15.10
2023-04-17T15:59:52.004Z,15.02
2023-04-17T16:02:20.384Z,14.93
2023-04-17T16:04:49.165Z,14.83
2023-04-17T16:07:18.562Z,14.73
2023-04-17T16:09:48.570Z,14.65
2023-04-17T16:12:17.068Z,14.53
2023-04-17T16:14:47.147Z,14.42
2023-04-17T16:17:15.459Z,14.31
2023-04-17T16:19:44.243Z,14.22
2023-04-17T16:22:12.524Z,14.16
2023-04-17T16:24:41.823Z,14.09
2023-04-17T16:27:09.994Z,14.02
2023-04-17T16:29:38.579Z,13.96
2023-04-17T16:32:07.161Z,13.91
2023-04-17T16:34:35.846Z,13.91
2023-04-17T16:37:04.228Z,13.86
2023-04-17T16:39:33.314Z,13.80
2023-04-17T16:42:01.704Z,13.74
2023-04-17T16:44:30.688Z,13.69
2023-04-17T16:47:12.785Z,13.62
2023-04-17T16:49:42.965Z,13.56
2023-04-17T16:52:11.183Z,13.51
2023-04-17T16:54:40.519Z,13.51
2023-04-17T16:57:09.167Z,13.50
2023-04-17T16:59:37.864Z,13.48
2023-04-17T17:02:06.853Z,13.42
2023-04-17T17:04:35.764Z,13.39
2023-04-17T17:07:04.834Z,13.40
2023-04-17T17:09:33.517Z,13.41
2023-04-17T17:12:01.795Z,13.39
2023-04-17T17:14:30.574Z,13.32
2023-04-17T17:16:58.889Z,13.27
2023-04-17T17:19:27.237Z,13.21
2023-04-17T17:21:55.716Z,13.17
2023-04-17T17:24:24.190Z,13.12
2023-04-17T17:26:52.676Z,13.12
2023-04-17T17:29:20.952Z,13.10
2023-04-17T17:31:49.319Z,13.07
2023-04-17T17:34:26.240Z,13.05
2023-04-17T17:36:56.018Z,13.02
2023-04-17T17:39:24.498Z,12.97
2023-04-17T17:41:53.080Z,12.92
2023-04-17T17:44:21.761Z,12.87
2023-04-17T17:46:50.144Z,12.83
2023-04-17T17:49:18.518Z,12.80
2023-04-17T17:51:47.104Z,12.76
2023-04-17T17:54:15.551Z,12.71
2023-04-17T17:56:44.475Z,12.63
2023-04-17T17:59:12.963Z,12.55
2023-04-17T18:01:41.576Z,12.56
2023-04-17T18:04:10.323Z,12.53
2023-04-17T18:06:41.163Z,12.49
2023-04-17T18:09:09.435Z,12.43
2023-04-17T18:11:37.730Z,12.33
2023-04-17T18:14:06.823Z,12.27
2023-04-17T18:43:51.850Z,12.33
2023-04-17T18:46:22.093Z,12.32
2023-04-17T18:48:50.448Z,12.30
2023-04-17T18:51:18.630Z,12.29
2023-04-17T18:53:47.004Z,12.29
2023-04-17T18:56:15.997Z,12.26
2023-04-17T18:58:44.477Z,12.24
2023-04-17T19:01:12.692Z,12.18
2023-04-17T19:03:41.230Z,12.13
2023-04-17T19:06:09.512Z,12.12
2023-04-17T19:08:39.733Z,12.10
2023-04-17T19:11:08.117Z,12.05
2023-04-17T19:13:36.595Z,12.01
2023-04-17T19:16:05.029Z,11.94
2023-04-17T19:18:33.429Z,11.85
2023-04-17T19:21:02.236Z,11.76
2023-04-17T19:23:30.609Z,11.74
2023-04-17T19:25:58.882Z,11.75
2023-04-17T19:28:28.624Z,11.78
2023-04-17T19:30:58.096Z,11.76
2023-04-17T19:33:26.478Z,11.75
2023-04-17T19:35:54.750Z,11.76
2023-04-17T19:38:23.230Z,11.79
2023-04-17T19:41:15.192Z,11.80
2023-04-17T19:43:47.429Z,11.76
2023-04-17T19:46:16.491Z,11.72
2023-04-17T19:48:45.108Z,11.68
2023-04-17T19:51:14.551Z,11.66
2023-04-17T19:53:43.503Z,11.63
2023-04-17T19:56:11.772Z,11.63
2023-04-17T19:58:40.487Z,11.59
2023-04-17T20:01:08.871Z,11.52
2023-04-17T20:03:39.672Z,11.45
2023-04-17T20:06:08.053Z,11.37
2023-04-17T20:08:37.148Z,11.28
2023-04-17T20:11:06.577Z,11.20
2023-04-17T20:13:35.657Z,11.13
2023-04-17T20:16:05.461Z,11.04
2023-04-17T20:18:34.242Z,10.98
2023-04-17T20:21:02.621Z,10.91
2023-04-17T20:23:31.204Z,10.86
2023-04-17T20:25:59.580Z,10.77
2023-04-17T20:28:29.320Z,10.70
2023-04-17T20:30:57.739Z,10.64
2023-04-17T20:33:26.089Z,10.58
2023-04-17T20:35:54.492Z,10.55
2023-04-17T20:38:23.429Z,10.53
2023-04-17T20:40:51.900Z,10.52
2023-04-17T20:43:20.188Z,10.47
2023-04-17T20:45:49.485Z,10.40
2023-04-17T20:48:18.849Z,10.30
2023-04-17T20:50:47.513Z,10.23
2023-04-17T20:53:15.996Z,10.15
2023-04-17T20:55:44.218Z,10.07
2023-04-17T20:58:12.493Z,9.98
2023-04-17T21:00:50.706Z,9.90
2023-04-17T21:03:26.731Z,9.81
2023-04-17T21:43:27.325Z,9.64
2023-04-17T21:45:57.257Z,9.59
2023-04-17T21:48:26.129Z,9.56
2023-04-17T21:51:02.650Z,9.51
2023-04-17T21:53:31.592Z,9.46
2023-04-17T21:56:00.074Z,9.51
2023-04-17T21:58:28.656Z,9.60
2023-04-17T22:00:57.052Z,9.71
2023-04-17T22:03:25.747Z,9.85
2023-04-17T22:05:56.453Z,9.95
2023-04-17T22:08:25.015Z,10.05
2023-04-17T22:10:53.725Z,10.12
2023-04-17T22:13:23.333Z,10.17
2023-04-17T22:15:52.322Z,10.22
2023-04-17T22:18:20.701Z,10.25
2023-04-17T22:20:48.976Z,10.27
2023-04-17T22:23:17.161Z,10.29
2023-04-17T22:25:45.633Z,10.30
2023-04-17T22:28:14.010Z,10.30
2023-04-17T22:30:42.334Z,10.31
2023-04-17T22:33:10.655Z,10.30
2023-04-17T22:35:39.649Z,10.30
2023-04-17T22:38:07.826Z,10.32
2023-04-17T22:40:37.798Z,10.34
2023-04-17T22:43:06.121Z,10.34
2023-04-17T22:45:34.906Z,10.33
2023-04-17T22:48:03.822Z,10.27
2023-04-17T22:50:33.301Z,10.16
2023-04-17T22:53:01.574Z,10.00
2023-04-17T22:55:30.050Z,9.87
2023-04-17T22:57:58.641Z,9.79
2023-04-17T23:00:27.632Z,9.75
2023-04-17T23:02:56.475Z,9.72
2023-04-17T23:05:25.580Z,9.65
2023-04-17T23:07:53.884Z,9.53
2023-04-17T23:10:22.371Z,9.37
2023-04-17T23:12:50.857Z,9.25
2023-04-17T23:15:19.533Z,9.16
2023-04-17T23:17:48.019Z,9.11
2023-04-17T23:20:17.245Z,9.11
2023-04-17T23:22:46.251Z,9.15
2023-04-17T23:25:14.687Z,9.12
2023-04-17T23:27:43.161Z,9.02
2023-04-17T23:30:12.735Z,8.87
2023-04-17T23:32:41.959Z,8.69
2023-04-17T23:35:10.248Z,8.57
2023-04-17T23:37:38.831Z,8.50
2023-04-17T23:43:27.345Z,8.57
2023-04-17T23:45:58.032Z,8.60
2023-04-17T23:48:26.718Z,8.63
2023-04-17T23:50:55.409Z,8.68
2023-04-17T23:53:23.785Z,8.73
2023-04-17T23:55:52.159Z,8.77
2023-04-17T23:58:20.428Z,8.81
